Weather reports worldwide

Advertisment
St-Raphael, France (7680): temperature & dewpoint: 06.12.2018 00:00:00 - 12.12.2018 00:00:00 (CET)St-Raphael, France (7680): wind speed & gusts: 06.12.2018 00:00:00 - 12.12.2018 00:00:00 (CET)St-Raphael, France (7680): wind direction: 06.12.2018 00:00:00 - 12.12.2018 00:00:00 (CET)St-Raphael, France (7680): precipitation: 06.12.2018 00:00:00 - 12.12.2018 00:00:00 (CET)
Date & Time tt [°C] td [°C] ff [km/h] ff [kn] fx [km/h] fx [kn] dd rr [mm]
12.12.2018 00:00:00 6,2 4,2 8 4 16 9 NNW 0,0
11.12.2018 23:00:00 6,6 4,9 8 4 16 9 NW 0,0
11.12.2018 22:00:00 6,6 5,2 8 4 15 8 NW 0,0
11.12.2018 21:00:00 7,0 5,0 4 2 9 5 NNW 0,0
11.12.2018 20:00:00 6,9 5,2 4 2 11 6 WNW 0,0
11.12.2018 19:00:00 8,3 6,1 5 3 9 5 NW -
11.12.2018 18:00:00 10,5 7,2 4 2 8 4 NNE 0,0
11.12.2018 17:00:00 12,5 7,4 4 2 15 8 NE 0,0
11.12.2018 16:00:00 13,9 7,2 8 4 16 9 E 0,0
11.12.2018 15:00:00 15,1 6,4 9 5 21 11 ESE 0,0
11.12.2018 14:00:00 15,3 6,0 9 5 22 12 E 0,0
11.12.2018 13:00:00 14,2 4,7 9 5 24 13 NW -
11.12.2018 12:00:00 12,1 2,0 15 8 26 14 NW 0,0
11.12.2018 11:00:00 10,9 1,4 13 7 24 13 NW 0,0
11.12.2018 10:00:00 8,2 0,9 11 6 24 13 NNW 0,0
11.12.2018 09:00:00 6,0 0,1 13 7 28 15 NNW 0,0
11.12.2018 08:00:00 5,5 -0,1 13 7 28 15 NNW 0,0
11.12.2018 07:00:00 6,1 0,0 13 7 26 14 NNW -
11.12.2018 06:00:00 6,3 0,0 13 7 26 14 NNW 0,0
11.12.2018 05:00:00 6,1 -0,2 11 6 26 14 NNW 0,0
11.12.2018 04:00:00 6,4 -0,1 11 6 26 14 NNW 0,0
11.12.2018 03:00:00 6,6 -0,2 11 6 26 14 NNW 0,0
11.12.2018 02:00:00 7,3 0,0 11 6 28 15 NNW 0,0
11.12.2018 01:00:00 7,6 0,1 11 6 24 13 NW -
11.12.2018 00:00:00 7,6 -0,1 11 6 28 15 NNW 0,0
10.12.2018 23:00:00 8,8 -0,3 13 7 26 14 NNW 0,0
10.12.2018 22:00:00 9,8 -0,1 13 7 31 17 NW 0,0
10.12.2018 21:00:00 10,7 -0,5 13 7 28 15 WNW 0,0
10.12.2018 20:00:00 11,3 -0,8 13 7 48 26 WNW 0,0
10.12.2018 19:00:00 12,1 -1,5 18 10 37 20 W -
10.12.2018 18:00:00 12,7 -1,3 22 12 44 24 WNW 0,0
10.12.2018 17:00:00 13,3 -0,7 24 13 50 27 W 0,0
10.12.2018 16:00:00 14,4 -0,5 28 15 48 26 W 0,0
10.12.2018 15:00:00 15,3 0,3 24 13 50 27 W 0,0
10.12.2018 14:00:00 15,7 0,7 26 14 57 31 W 0,0
10.12.2018 13:00:00 15,7 1,4 28 15 52 28 W -
10.12.2018 12:00:00 15,3 1,0 26 14 59 32 W 0,0
10.12.2018 11:00:00 14,6 0,4 28 15 52 28 W 0,0
10.12.2018 10:00:00 12,8 1,1 18 10 31 17 W 0,0
10.12.2018 09:00:00 11,4 1,3 13 7 29 16 SW 0,0
10.12.2018 08:00:00 11,7 0,4 15 8 48 26 W 0,0
10.12.2018 07:00:00 12,1 0,8 24 13 57 31 W -
10.12.2018 06:00:00 12,6 1,3 28 15 59 32 WNW 0,0
10.12.2018 05:00:00 12,6 1,9 34 18 67 36 WNW 0,0
10.12.2018 04:00:00 12,0 2,4 37 20 76 41 WNW 0,0
10.12.2018 03:00:00 12,5 2,6 39 21 72 39 W 0,0
10.12.2018 02:00:00 12,3 2,7 34 18 61 33 W 0,0
10.12.2018 01:00:00 11,9 2,6 35 19 63 34 W -
10.12.2018 00:00:00 12,1 2,3 34 18 59 32 W 0,0
09.12.2018 23:00:00 12,2 2,6 26 14 57 31 WNW 0,0
09.12.2018 22:00:00 12,6 2,2 28 15 67 36 WNW 0,0
09.12.2018 21:00:00 12,5 2,1 28 15 50 27 W 0,0
09.12.2018 20:00:00 12,6 2,7 29 16 61 33 W 0,0
09.12.2018 19:00:00 12,7 3,6 29 16 59 32 W -
09.12.2018 18:00:00 12,8 4,7 29 16 55 30 W 0,0
09.12.2018 17:00:00 12,4 5,3 29 16 70 38 W 0,0
09.12.2018 16:00:00 13,8 4,9 34 18 74 40 W 0,0
09.12.2018 15:00:00 15,9 4,9 37 20 80 43 W 0,0
09.12.2018 14:00:00 16,8 4,1 44 24 91 49 W 0,0
09.12.2018 13:00:00 16,8 5,1 39 21 94 51 W -
09.12.2018 12:00:00 16,4 5,4 48 26 98 53 W 0,0
09.12.2018 11:00:00 15,0 7,5 41 22 78 42 W 0,0
09.12.2018 10:00:00 13,1 7,1 39 21 67 36 W 0,0
09.12.2018 09:00:00 11,8 6,7 39 21 76 41 W 0,0
09.12.2018 08:00:00 11,5 6,8 39 21 80 43 W 0,0
09.12.2018 07:00:00 12,0 6,1 44 24 96 52 W -
09.12.2018 06:00:00 12,3 5,5 44 24 83 45 W 0,0
09.12.2018 05:00:00 12,3 5,2 39 21 78 42 W 0,0
09.12.2018 04:00:00 12,7 4,6 41 22 74 40 W 0,0
09.12.2018 03:00:00 12,9 4,1 35 19 67 36 W 0,0
09.12.2018 02:00:00 12,8 3,4 35 19 70 38 W 0,0
09.12.2018 01:00:00 12,8 3,2 35 19 65 35 W -
09.12.2018 00:00:00 12,6 3,0 28 15 54 29 W 0,0
08.12.2018 23:00:00 12,1 2,8 26 14 57 31 W 0,0
08.12.2018 22:00:00 12,4 2,3 34 18 61 33 W 0,0
08.12.2018 21:00:00 12,6 1,9 22 12 46 25 WNW 0,0
08.12.2018 20:00:00 12,4 1,7 21 11 52 28 W 0,0
08.12.2018 19:00:00 13,0 0,7 16 9 50 27 W -
08.12.2018 18:00:00 14,1 0,0 29 16 54 29 W 0,0
08.12.2018 17:00:00 14,5 0,0 24 13 55 30 W 0,0
08.12.2018 16:00:00 15,5 -0,7 34 18 67 36 W 0,0
08.12.2018 15:00:00 15,9 0,0 34 18 76 41 W 0,0
08.12.2018 14:00:00 16,0 -0,3 41 22 72 39 WNW 0,0
08.12.2018 13:00:00 15,7 -1,0 35 19 68 37 WNW -
08.12.2018 12:00:00 14,8 -0,9 28 15 57 31 WNW 0,0
08.12.2018 11:00:00 13,5 -0,9 21 11 52 28 WNW 0,0
08.12.2018 10:00:00 11,4 -0,8 31 17 65 35 W 0,0
08.12.2018 09:00:00 10,5 -1,6 34 18 70 38 W 0,0
08.12.2018 08:00:00 10,3 -1,8 37 20 61 33 W 0,0
08.12.2018 07:00:00 10,5 -1,6 34 18 67 36 W -
08.12.2018 06:00:00 11,0 -1,4 34 18 61 33 W 0,0
08.12.2018 05:00:00 11,1 -0,7 34 18 61 33 W 0,0
08.12.2018 04:00:00 11,3 0,7 26 14 68 37 W 0,0
08.12.2018 03:00:00 11,9 3,1 26 14 70 38 W 0,0
08.12.2018 02:00:00 13,0 4,7 41 22 85 46 W 0,0
08.12.2018 01:00:00 12,3 6,6 31 17 67 36 W -
08.12.2018 00:00:00 12,5 6,5 37 20 70 38 W 0,0
07.12.2018 23:00:00 13,0 7,4 29 16 63 34 W 0,0
07.12.2018 22:00:00 13,0 7,9 29 16 65 35 W 0,0
07.12.2018 21:00:00 12,8 8,1 31 17 59 32 W 0,0
07.12.2018 20:00:00 12,9 8,2 24 13 48 26 W 0,0
07.12.2018 19:00:00 13,3 8,4 22 12 42 23 W -
07.12.2018 18:00:00 14,6 9,0 21 11 41 22 W 0,0
07.12.2018 17:00:00 12,8 9,8 5 3 11 6 SW 0,0
07.12.2018 16:00:00 15,0 12,1 9 5 18 10 S 0,0
07.12.2018 15:00:00 16,0 11,4 8 4 16 9 S 0,0
07.12.2018 14:00:00 15,2 10,4 8 4 21 11 NW 0,0
07.12.2018 13:00:00 13,4 10,0 9 5 21 11 NW -
07.12.2018 12:00:00 12,6 9,4 9 5 21 11 WNW 0,0
07.12.2018 11:00:00 11,6 8,6 11 6 18 10 NW 0,0
07.12.2018 10:00:00 9,1 7,5 9 5 16 9 NW 0,0
07.12.2018 09:00:00 8,4 7,2 8 4 21 11 NW 0,0
07.12.2018 08:00:00 8,0 6,9 9 5 21 11 NW 0,0
07.12.2018 07:00:00 7,8 6,9 8 4 15 8 WNW -
07.12.2018 06:00:00 8,8 7,6 8 4 18 10 NW 0,0
07.12.2018 05:00:00 8,4 7,3 8 4 18 10 NNW 0,0
07.12.2018 04:00:00 8,2 7,3 9 5 18 10 NW 0,0
07.12.2018 03:00:00 7,8 7,2 8 4 13 7 NW 0,2
07.12.2018 02:00:00 8,1 7,7 5 3 9 5 NW 0,0
07.12.2018 01:00:00 7,7 7,3 4 2 8 4 NW -
07.12.2018 00:00:00 8,2 7,6 4 2 5 3 WNW 0,0
06.12.2018 23:00:00 9,1 8,3 2 1 9 5 NW 0,0
06.12.2018 22:00:00 9,3 8,5 4 2 11 6 WNW 0,0
06.12.2018 21:00:00 9,8 9,0 5 3 8 4 WNW 0,0
06.12.2018 20:00:00 10,4 9,3 2 1 8 4 WNW 0,0
06.12.2018 19:00:00 11,1 9,7 2 1 8 4 N -
06.12.2018 18:00:00 11,9 10,3 4 2 5 3 NNW 0,0
06.12.2018 17:00:00 13,9 10,1 4 2 13 7 ESE 0,0
06.12.2018 16:00:00 15,5 10,5 8 4 15 8 ESE 0,0
06.12.2018 15:00:00 16,1 10,8 8 4 22 12 ESE 0,0
06.12.2018 14:00:00 16,5 11,0 11 6 24 13 E 0,0
06.12.2018 13:00:00 17,1 10,9 5 3 13 7 ESE -
06.12.2018 12:00:00 16,2 10,1 5 3 15 8 WNW 0,0
06.12.2018 11:00:00 15,0 8,9 8 4 39 21 NW 0,0
06.12.2018 10:00:00 11,4 7,5 8 4 26 14 N 0,0
06.12.2018 09:00:00 9,1 7,4 11 6 24 13 N 0,0
06.12.2018 08:00:00 7,9 6,7 9 5 21 11 N 0,0
06.12.2018 07:00:00 8,6 7,8 11 6 18 10 N -
06.12.2018 06:00:00 8,7 8,1 11 6 18 10 NNW 0,0
06.12.2018 05:00:00 8,4 8,0 4 2 15 8 N 0,2
06.12.2018 04:00:00 8,5 7,7 8 4 16 9 NW 0,0
06.12.2018 03:00:00 8,8 7,9 5 3 18 10 NNW 0,0
06.12.2018 02:00:00 9,0 8,2 8 4 16 9 NNW 0,0
06.12.2018 01:00:00 9,4 8,6 8 4 15 8 NNW -
06.12.2018 00:00:00 9,3 8,5 8 4 18 10 NW 0,0

tt = temperature
td = dewpoint
ff = wind speed
fx = gusts
dd = wind direction
rr = precipitation

Next stations